Аэропорт: Кольцово. Екатеринбург

ICAO: USSS

METAR:
2021-07-28 14:00:00
USSS 281400Z 30007MPS 9999 SCT044 17/05 Q1010 R26L/010060 R26R/010060 NOSIG RMK QFE737/0983
METAR:
2021-07-28 10:52:00
TAF USSS 281052Z 2812/2912 31005G15MPS 9999 BKN016 SCT020CB BECMG 2816/2818 28003G08MPS BECMG 2820/2821 6000 SCT016 FM290300 27003G13MPS 9999 SCT020CB